Time;durP1;ratioP1;P1;durP2;ratioP2;P2;SDS_P1;SDS_P2;PMS_P1;PMS_P2;Temp;Humidity;BMP_temperature;BMP_pressure;BME280_temperature;BME280_humidity;BME280_pressure;Samples;Min_cycle;Max_cycle;Signal;HPM_P1;HPM_P2
2021/09/06 00:00:00;;;;;;;7.70;5.63;;;16.80;78.10;;;;;;2011266;29;20069;-94
2021/09/06 00:01:20;;;;;;;7.75;5.60;;;16.80;78.10;;;;;;2024265;29;20036;-94
2021/09/06 00:02:43;;;;;;;7.78;5.40;;;16.70;78.10;;;;;;2022653;29;20116;-92
2021/09/06 00:04:02;;;;;;;8.35;5.45;;;16.80;78.20;;;;;;2021630;29;20060;-93
2021/09/06 00:05:21;;;;;;;8.88;5.82;;;16.70;78.20;;;;;;2019144;29;20085;-94
2021/09/06 00:06:41;;;;;;;8.18;5.90;;;16.70;78.30;;;;;;2015999;29;20033;-94
2021/09/06 00:08:00;;;;;;;7.90;5.05;;;16.70;78.30;;;;;;2019607;29;20045;-92
2021/09/06 00:09:20;;;;;;;7.95;5.60;;;16.70;78.40;;;;;;2010871;29;20817;-93
2021/09/06 00:10:41;;;;;;;10.15;6.22;;;16.70;78.40;;;;;;2020018;29;20033;-94
2021/09/06 00:12:01;;;;;;;9.10;6.28;;;16.70;78.50;;;;;;2014597;29;20041;-93
2021/09/06 00:13:20;;;;;;;7.40;5.28;;;16.70;78.60;;;;;;2015690;29;20042;-94
2021/09/06 00:14:39;;;;;;;8.98;5.60;;;16.70;78.60;;;;;;2023048;29;20056;-93
2021/09/06 00:16:02;;;;;;;7.30;5.22;;;16.70;78.70;;;;;;2022653;29;20076;-94
2021/09/06 00:17:21;;;;;;;7.15;4.75;;;16.60;78.70;;;;;;2022049;29;20448;-94
2021/09/06 00:18:41;;;;;;;7.03;5.25;;;16.70;78.80;;;;;;2026660;29;20036;-94
2021/09/06 00:20:00;;;;;;;8.00;5.38;;;16.60;78.80;;;;;;2003942;29;20074;-94
2021/09/06 00:21:19;;;;;;;8.05;5.60;;;16.60;78.80;;;;;;2010525;29;20065;-94
2021/09/06 00:22:38;;;;;;;7.55;5.40;;;16.70;78.90;;;;;;2016271;29;20120;-93
2021/09/06 00:23:58;;;;;;;8.70;6.00;;;16.60;78.90;;;;;;2016679;29;20504;-94
2021/09/06 00:25:17;;;;;;;8.57;5.97;;;16.60;79.00;;;;;;2016269;29;20041;-94
2021/09/06 00:26:36;;;;;;;9.02;5.60;;;16.60;79.00;;;;;;2015323;29;20148;-94
2021/09/06 00:27:55;;;;;;;8.07;5.53;;;16.60;79.20;;;;;;2018802;29;20492;-93
2021/09/06 00:29:15;;;;;;;8.30;5.60;;;16.60;79.20;;;;;;2019043;29;20053;-94
2021/09/06 00:30:34;;;;;;;7.70;5.53;;;16.60;79.30;;;;;;2016213;29;20504;-93
2021/09/06 00:31:54;;;;;;;8.57;5.82;;;16.60;79.30;;;;;;2015121;29;20065;-93
2021/09/06 00:33:13;;;;;;;8.80;5.53;;;16.50;79.30;;;;;;2021087;29;20037;-94
2021/09/06 00:34:32;;;;;;;8.48;5.50;;;16.50;79.40;;;;;;2015740;29;20041;-94
2021/09/06 00:35:52;;;;;;;8.32;5.88;;;16.50;79.50;;;;;;2019188;29;20041;-94
2021/09/06 00:37:11;;;;;;;8.00;5.25;;;16.50;79.60;;;;;;2006540;29;20046;-94
2021/09/06 00:38:30;;;;;;;9.50;5.65;;;16.50;79.60;;;;;;2013059;29;20124;-94
2021/09/06 00:39:49;;;;;;;8.40;5.55;;;16.40;79.60;;;;;;2012721;29;20523;-94
2021/09/06 00:41:09;;;;;;;8.05;5.80;;;16.40;79.70;;;;;;2010769;29;20037;-94
2021/09/06 00:42:28;;;;;;;8.13;5.82;;;16.40;79.70;;;;;;2019052;29;20044;-93
2021/09/06 00:43:48;;;;;;;8.73;5.63;;;16.40;79.80;;;;;;2006983;29;20038;-94
2021/09/06 00:45:08;;;;;;;9.20;5.55;;;16.40;79.90;;;;;;2016222;29;20040;-93
2021/09/06 00:46:28;;;;;;;7.97;5.72;;;16.30;79.80;;;;;;2026869;29;20403;-93
2021/09/06 00:47:49;;;;;;;9.30;5.70;;;16.30;80.00;;;;;;2026653;29;20028;-94
2021/09/06 00:49:08;;;;;;;7.72;5.35;;;16.30;80.00;;;;;;2025694;29;20040;-94
2021/09/06 00:50:27;;;;;;;8.20;5.50;;;16.30;80.10;;;;;;2018177;29;20073;-94
2021/09/06 00:51:47;;;;;;;8.60;5.80;;;16.20;80.20;;;;;;2019375;29;20037;-94
2021/09/06 00:53:06;;;;;;;7.35;5.22;;;16.30;80.30;;;;;;2014840;29;20037;-94
2021/09/06 00:54:26;;;;;;;8.45;5.70;;;16.20;80.30;;;;;;2015333;29;20037;-94
2021/09/06 00:55:46;;;;;;;8.85;5.68;;;16.20;80.40;;;;;;2019276;29;20033;-94
2021/09/06 00:57:05;;;;;;;8.30;5.57;;;16.20;80.50;;;;;;2019551;29;20037;-94
2021/09/06 00:58:27;;;;;;;7.45;5.32;;;16.10;80.40;;;;;;2021582;29;20032;-94
2021/09/06 00:59:47;;;;;;;8.35;5.80;;;16.20;80.50;;;;;;2028820;29;20032;-94
2021/09/06 01:01:07;;;;;;;8.65;5.53;;;16.10;80.50;;;;;;2021767;29;20029;-94
2021/09/06 01:02:27;;;;;;;7.93;5.55;;;16.10;80.60;;;;;;2015245;29;20041;-93
2021/09/06 01:03:46;;;;;;;8.50;6.20;;;16.10;80.60;;;;;;2008789;29;20082;-94
2021/09/06 01:05:06;;;;;;;8.88;5.85;;;16.10;80.60;;;;;;2010356;29;20520;-93
2021/09/06 01:06:25;;;;;;;8.52;5.82;;;16.10;80.70;;;;;;2016321;29;20033;-93
2021/09/06 01:07:45;;;;;;;8.35;5.63;;;16.10;80.80;;;;;;2016899;29;20034;-93
2021/09/06 01:09:04;;;;;;;8.20;6.20;;;16.10;80.90;;;;;;2005021;29;20053;-94
2021/09/06 01:10:24;;;;;;;8.63;6.13;;;16.00;80.90;;;;;;2009682;29;20032;-94
2021/09/06 01:11:43;;;;;;;8.48;6.28;;;16.00;80.90;;;;;;2021987;29;20040;-93
2021/09/06 01:13:02;;;;;;;7.65;5.93;;;16.00;81.00;;;;;;2028287;29;20488;-93
2021/09/06 01:14:22;;;;;;;9.05;6.00;;;16.00;81.10;;;;;;2006529;29;20077;-94
2021/09/06 01:15:42;;;;;;;7.65;5.63;;;16.00;81.10;;;;;;2016610;29;20449;-93
2021/09/06 01:17:01;;;;;;;7.57;5.85;;;15.90;81.10;;;;;;2009144;29;20057;-94
2021/09/06 01:18:21;;;;;;;7.70;5.55;;;15.90;81.10;;;;;;2013603;29;20036;-93
2021/09/06 01:19:40;;;;;;;7.75;5.78;;;15.90;81.10;;;;;;2024692;29;20012;-93
2021/09/06 01:20:59;;;;;;;7.95;5.88;;;15.90;81.20;;;;;;2027782;29;20507;-94
2021/09/06 01:22:19;;;;;;;7.90;5.88;;;15.90;81.20;;;;;;2029776;29;20049;-94
2021/09/06 01:23:38;;;;;;;8.50;5.70;;;15.90;81.30;;;;;;2024408;29;20029;-93
2021/09/06 01:24:57;;;;;;;8.40;5.75;;;15.90;81.30;;;;;;2028763;29;20044;-94
2021/09/06 01:26:16;;;;;;;8.85;5.82;;;15.90;81.40;;;;;;2008708;29;20041;-94
2021/09/06 01:27:36;;;;;;;7.68;5.88;;;15.90;81.30;;;;;;2018168;29;20115;-94
2021/09/06 01:28:55;;;;;;;8.65;6.50;;;15.90;81.50;;;;;;2024167;29;20048;-94
2021/09/06 01:30:15;;;;;;;9.05;6.15;;;15.80;81.50;;;;;;2023556;29;20112;-94
2021/09/06 01:31:34;;;;;;;9.00;6.47;;;15.90;81.60;;;;;;2028829;29;20072;-94
2021/09/06 01:32:54;;;;;;;8.35;6.15;;;15.80;82.10;;;;;;2024348;29;20045;-94
2021/09/06 01:34:13;;;;;;;7.70;5.93;;;15.80;81.50;;;;;;2024074;29;20044;-94
2021/09/06 01:35:32;;;;;;;8.70;5.97;;;15.80;81.50;;;;;;2020779;29;20049;-92
2021/09/06 01:36:52;;;;;;;9.20;6.60;;;15.80;81.60;;;;;;2013483;29;20049;-93
2021/09/06 01:38:11;;;;;;;8.57;5.95;;;15.80;81.60;;;;;;2016834;29;20037;-94
2021/09/06 01:39:30;;;;;;;9.50;6.22;;;15.80;81.60;;;;;;2012624;29;20042;-93
2021/09/06 01:40:49;;;;;;;8.05;6.03;;;15.80;81.60;;;;;;2026043;29;20045;-93
2021/09/06 01:42:10;;;;;;;8.48;6.28;;;15.80;82.30;;;;;;2031477;29;20032;-94
2021/09/06 01:43:29;;;;;;;9.30;6.47;;;15.80;81.70;;;;;;2021368;29;20120;-93
2021/09/06 01:44:49;;;;;;;7.80;5.57;;;15.80;81.70;;;;;;2028553;29;20045;-94
2021/09/06 01:46:08;;;;;;;9.32;6.50;;;15.80;81.70;;;;;;2024006;29;20104;-93
2021/09/06 01:47:28;;;;;;;9.95;6.45;;;15.80;81.70;;;;;;2020862;29;20044;-94
2021/09/06 01:48:48;;;;;;;9.23;6.25;;;15.80;81.70;;;;;;2021838;29;20124;-94
2021/09/06 01:50:08;;;;;;;9.07;6.60;;;15.80;81.70;;;;;;2027156;29;20033;-94
2021/09/06 01:51:28;;;;;;;10.07;5.90;;;15.80;81.80;;;;;;2013786;29;20081;-93
2021/09/06 01:52:47;;;;;;;8.53;6.07;;;15.80;81.80;;;;;;2009974;29;20124;-94
2021/09/06 01:54:06;;;;;;;10.50;7.05;;;15.80;81.80;;;;;;2021352;29;20269;-94
2021/09/06 01:55:26;;;;;;;8.98;6.55;;;15.80;81.80;;;;;;2019931;29;20524;-94
2021/09/06 01:56:45;;;;;;;8.93;6.40;;;15.70;81.90;;;;;;2028048;29;20048;-94
2021/09/06 01:58:05;;;;;;;9.02;6.50;;;15.70;81.90;;;;;;2032177;29;20088;-94
2021/09/06 01:59:24;;;;;;;8.60;6.22;;;15.70;82.00;;;;;;2030388;29;20098;-94
2021/09/06 02:00:44;;;;;;;9.98;6.28;;;15.70;82.10;;;;;;2012379;29;20045;-93
2021/09/06 02:02:03;;;;;;;9.98;6.85;;;15.70;82.10;;;;;;2027629;29;20032;-93
2021/09/06 02:03:22;;;;;;;8.88;6.15;;;15.70;82.10;;;;;;2023377;29;20033;-94
2021/09/06 02:04:41;;;;;;;9.93;6.65;;;15.70;82.10;;;;;;2013673;29;20034;-93
2021/09/06 02:06:01;;;;;;;10.07;6.72;;;15.70;82.20;;;;;;2018161;29;20420;-94
2021/09/06 02:07:20;;;;;;;10.02;6.75;;;15.70;82.30;;;;;;2022481;29;20053;-93
2021/09/06 02:08:40;;;;;;;9.32;6.80;;;15.70;82.30;;;;;;2008038;29;20441;-94
2021/09/06 02:09:59;;;;;;;10.98;7.35;;;15.70;82.30;;;;;;2016580;29;20049;-94
2021/09/06 02:11:19;;;;;;;9.70;6.40;;;15.70;82.30;;;;;;2023907;29;20037;-94
2021/09/06 02:12:38;;;;;;;9.32;6.20;;;15.70;82.40;;;;;;2014488;29;20041;-94
2021/09/06 02:13:59;;;;;;;9.73;6.53;;;15.60;82.30;;;;;;2023811;29;20085;-94
2021/09/06 02:15:18;;;;;;;;;;;15.70;82.40;;;;;;2023114;29;20037;-94
2021/09/06 02:16:38;;;;;;;9.43;5.72;;;15.70;82.30;;;;;;2027105;29;20405;-94
2021/09/06 02:17:57;;;;;;;7.72;5.72;;;15.60;82.20;;;;;;2020079;29;20033;-94
2021/09/06 02:19:16;;;;;;;8.77;6.38;;;15.60;82.20;;;;;;2011717;29;20046;-93
2021/09/06 02:20:35;;;;;;;8.40;6.13;;;15.60;82.30;;;;;;2014268;29;20045;-94
2021/09/06 02:21:54;;;;;;;9.93;6.43;;;15.60;82.30;;;;;;2024583;29;20052;-94
2021/09/06 02:23:14;;;;;;;10.07;6.40;;;15.60;82.40;;;;;;2027525;29;20119;-94
2021/09/06 02:24:33;;;;;;;8.07;5.85;;;15.60;82.50;;;;;;2023082;29;20040;-93
2021/09/06 02:25:52;;;;;;;9.65;6.75;;;15.60;82.50;;;;;;2018199;29;20053;-94
2021/09/06 02:27:11;;;;;;;9.15;6.57;;;15.50;82.50;;;;;;2023276;29;20040;-94
2021/09/06 02:28:30;;;;;;;8.80;6.53;;;15.50;82.50;;;;;;2023326;29;20032;-93
2021/09/06 02:29:50;;;;;;;9.75;6.93;;;15.50;82.60;;;;;;2014251;29;20025;-94
2021/09/06 02:31:09;;;;;;;9.23;6.63;;;15.50;82.60;;;;;;2022809;29;20033;-94
2021/09/06 02:32:28;;;;;;;8.90;6.40;;;15.50;82.70;;;;;;2015603;29;20441;-94
2021/09/06 02:33:47;;;;;;;8.73;6.50;;;15.50;82.70;;;;;;2015146;29;20080;-95
2021/09/06 02:35:07;;;;;;;8.73;6.32;;;15.50;82.80;;;;;;2022898;29;20040;-94
2021/09/06 02:36:26;;;;;;;9.00;6.55;;;15.50;82.80;;;;;;2018118;29;20037;-93
2021/09/06 02:37:46;;;;;;;9.63;6.85;;;15.50;82.90;;;;;;2013834;29;20045;-94
2021/09/06 02:39:05;;;;;;;9.27;6.82;;;15.50;82.90;;;;;;2018335;29;20041;-94
2021/09/06 02:40:24;;;;;;;8.15;6.30;;;15.50;82.90;;;;;;2018303;29;20037;-94
2021/09/06 02:41:43;;;;;;;9.30;6.75;;;15.40;82.90;;;;;;2017158;29;20045;-94
2021/09/06 02:43:03;;;;;;;10.75;7.32;;;15.40;83.00;;;;;;2018496;29;20132;-93
2021/09/06 02:44:22;;;;;;;9.23;6.38;;;15.40;83.10;;;;;;2010839;29;20065;-94
2021/09/06 02:45:41;;;;;;;9.77;6.88;;;15.40;83.10;;;;;;2013186;29;20037;-93
2021/09/06 02:47:00;;;;;;;9.55;6.88;;;15.40;83.10;;;;;;2017792;29;20508;-94
2021/09/06 02:48:19;;;;;;;10.13;7.00;;;15.40;83.20;;;;;;2010658;29;20069;-94
2021/09/06 02:49:39;;;;;;;9.80;6.43;;;15.40;83.20;;;;;;2004745;29;20045;-95
2021/09/06 02:50:58;;;;;;;9.77;6.70;;;15.40;83.30;;;;;;2016965;29;20430;-94
2021/09/06 02:52:17;;;;;;;8.93;6.35;;;15.30;83.30;;;;;;2022982;29;20029;-94
2021/09/06 02:53:36;;;;;;;8.73;6.22;;;15.30;83.30;;;;;;2026054;29;20123;-93
2021/09/06 02:54:56;;;;;;;10.05;6.70;;;15.30;83.30;;;;;;2021157;29;20432;-93
2021/09/06 02:56:15;;;;;;;9.85;6.72;;;15.30;83.40;;;;;;2010862;29;20038;-93
2021/09/06 02:57:34;;;;;;;9.82;6.78;;;15.30;83.40;;;;;;2010902;29;20449;-93
2021/09/06 02:58:54;;;;;;;9.05;6.18;;;15.30;83.40;;;;;;2017452;29;20056;-94
2021/09/06 03:00:13;;;;;;;9.40;6.63;;;15.30;83.50;;;;;;2017743;29;20524;-93
2021/09/06 03:01:33;;;;;;;9.15;6.38;;;15.20;83.50;;;;;;2014610;29;20038;-93
2021/09/06 03:02:52;;;;;;;8.93;6.45;;;15.30;83.60;;;;;;2027384;29;20029;-93
2021/09/06 03:04:12;;;;;;;9.93;6.70;;;15.30;83.60;;;;;;2027820;29;20080;-92
2021/09/06 03:05:32;;;;;;;9.40;6.45;;;15.20;83.60;;;;;;2027621;29;20077;-91
2021/09/06 03:06:51;;;;;;;8.85;6.60;;;15.20;83.60;;;;;;2028036;29;20037;-91
2021/09/06 03:08:10;;;;;;;9.73;6.50;;;15.20;83.70;;;;;;2024964;29;20037;-92
2021/09/06 03:09:30;;;;;;;10.38;6.47;;;15.20;83.70;;;;;;2020550;29;20041;-92
2021/09/06 03:10:49;;;;;;;10.18;6.47;;;15.20;83.80;;;;;;2011316;29;20098;-95
2021/09/06 03:12:08;;;;;;;8.73;6.18;;;15.20;83.80;;;;;;2025131;29;20022;-93
2021/09/06 03:13:29;;;;;;;9.18;6.75;;;15.10;83.80;;;;;;2028199;29;20045;-92
2021/09/06 03:14:49;;;;;;;9.00;6.25;;;15.10;83.90;;;;;;2035881;29;20152;-92
2021/09/06 03:16:08;;;;;;;9.75;6.45;;;15.10;83.90;;;;;;2019845;29;20042;-94
2021/09/06 03:17:27;;;;;;;9.60;6.60;;;15.10;83.90;;;;;;2004793;29;20038;-95
2021/09/06 03:18:47;;;;;;;9.13;6.70;;;15.10;84.00;;;;;;2007779;29;20034;-95
2021/09/06 03:20:07;;;;;;;10.18;6.97;;;15.10;84.00;;;;;;2013672;29;20041;-94
2021/09/06 03:21:26;;;;;;;10.00;6.55;;;15.10;84.00;;;;;;2021853;29;20037;-94
2021/09/06 03:22:46;;;;;;;8.93;6.55;;;15.10;84.10;;;;;;2026775;29;20116;-94
2021/09/06 03:24:05;;;;;;;10.35;7.15;;;15.10;84.10;;;;;;2023958;29;20045;-94
2021/09/06 03:25:24;;;;;;;9.82;6.82;;;15.00;84.10;;;;;;2016410;29;20112;-94
2021/09/06 03:26:43;;;;;;;9.50;6.72;;;15.00;84.10;;;;;;2016685;29;20049;-94
2021/09/06 03:28:03;;;;;;;9.18;6.65;;;15.00;84.20;;;;;;2013437;29;20444;-94
2021/09/06 03:29:22;;;;;;;9.57;6.70;;;15.00;84.20;;;;;;2018516;29;20029;-94
2021/09/06 03:30:41;;;;;;;10.35;6.93;;;15.00;84.30;;;;;;2002427;29;20038;-93
2021/09/06 03:32:00;;;;;;;8.60;6.10;;;15.00;84.30;;;;;;2015553;29;20123;-93
2021/09/06 03:33:19;;;;;;;9.70;6.68;;;15.00;84.30;;;;;;2014301;29;20033;-93
2021/09/06 03:34:39;;;;;;;9.30;6.63;;;15.00;84.40;;;;;;2021941;29;20060;-94
2021/09/06 03:35:58;;;;;;;9.40;6.60;;;15.00;84.50;;;;;;2024861;29;20040;-94
2021/09/06 03:37:17;;;;;;;9.00;6.47;;;14.90;84.50;;;;;;2021057;29;20040;-93
2021/09/06 03:38:37;;;;;;;8.93;6.68;;;14.90;84.50;;;;;;2017744;29;20030;-94
2021/09/06 03:39:56;;;;;;;9.90;6.45;;;15.00;84.60;;;;;;2014916;29;20048;-93
2021/09/06 03:41:16;;;;;;;8.70;5.97;;;14.90;84.50;;;;;;2022156;29;20171;-94
2021/09/06 03:42:35;;;;;;;10.07;6.40;;;15.00;84.50;;;;;;2015373;29;20053;-94
2021/09/06 03:43:54;;;;;;;9.18;6.60;;;14.90;84.50;;;;;;2022696;29;20036;-95
2021/09/06 03:45:14;;;;;;;10.40;6.85;;;14.90;84.50;;;;;;2004244;29;20057;-93
2021/09/06 03:46:33;;;;;;;8.98;6.38;;;14.90;84.60;;;;;;2015438;29;20033;-93
2021/09/06 03:47:52;;;;;;;9.63;6.60;;;14.90;84.60;;;;;;2014415;29;20049;-94
2021/09/06 03:49:11;;;;;;;9.68;7.00;;;14.90;84.70;;;;;;2022802;29;20033;-93
2021/09/06 03:50:31;;;;;;;8.35;6.32;;;14.90;84.80;;;;;;2011942;29;20037;-94
2021/09/06 03:51:50;;;;;;;10.13;6.70;;;15.00;84.90;;;;;;2017967;29;20061;-93
2021/09/06 03:53:12;;;;;;;10.05;6.75;;;14.90;84.80;;;;;;2015150;29;20049;-94
2021/09/06 03:54:31;;;;;;;9.32;6.57;;;14.90;84.80;;;;;;2012483;29;20037;-93
2021/09/06 03:55:50;;;;;;;10.02;6.60;;;14.90;84.80;;;;;;2012093;29;20041;-94
2021/09/06 03:57:09;;;;;;;9.55;6.30;;;14.90;84.90;;;;;;2012241;29;20037;-93
2021/09/06 03:58:29;;;;;;;9.45;6.53;;;14.90;85.50;;;;;;2009912;29;20120;-94
2021/09/06 03:59:48;;;;;;;10.20;6.43;;;14.90;84.90;;;;;;2016242;29;20136;-94
2021/09/06 04:01:07;;;;;;;9.45;6.40;;;14.90;85.00;;;;;;2023205;29;20479;-94
2021/09/06 04:02:26;;;;;;;8.27;6.25;;;14.90;85.00;;;;;;2018130;29;20044;-93
2021/09/06 04:03:45;;;;;;;9.77;6.30;;;14.90;85.00;;;;;;2018064;29;20462;-94
2021/09/06 04:05:05;;;;;;;9.50;6.68;;;14.90;85.00;;;;;;2011905;29;20069;-94
2021/09/06 04:06:24;;;;;;;8.88;6.25;;;14.80;85.00;;;;;;2010779;29;20041;-94
2021/09/06 04:07:44;;;;;;;8.30;5.72;;;14.80;85.10;;;;;;2016317;29;20065;-94
2021/09/06 04:09:03;;;;;;;9.88;6.53;;;14.80;85.10;;;;;;2016972;29;20042;-94
2021/09/06 04:10:23;;;;;;;8.88;6.50;;;14.80;85.20;;;;;;2018649;29;20041;-93
2021/09/06 04:11:42;;;;;;;8.88;6.15;;;14.80;85.20;;;;;;2021901;29;20025;-94
2021/09/06 04:13:01;;;;;;;8.63;6.30;;;14.80;85.20;;;;;;2029817;29;20037;-94
2021/09/06 04:14:22;;;;;;;7.40;5.43;;;14.80;85.20;;;;;;2023072;29;20403;-94
2021/09/06 04:15:41;;;;;;;8.40;5.82;;;14.70;85.20;;;;;;2020892;29;20041;-94
2021/09/06 04:17:01;;;;;;;8.68;6.25;;;14.80;85.20;;;;;;2022167;29;20519;-94
2021/09/06 04:18:20;;;;;;;8.55;6.22;;;14.70;85.20;;;;;;2013065;29;20042;-94
2021/09/06 04:19:39;;;;;;;9.20;6.45;;;14.70;85.20;;;;;;2015874;29;20048;-94
2021/09/06 04:20:58;;;;;;;9.65;6.35;;;14.70;85.20;;;;;;2018840;29;20064;-94
2021/09/06 04:22:18;;;;;;;9.48;6.72;;;14.70;85.20;;;;;;2021490;29;20070;-94
2021/09/06 04:23:39;;;;;;;8.70;6.30;;;14.70;85.20;;;;;;2021375;29;20432;-94
2021/09/06 04:25:00;;;;;;;;;;;14.70;85.20;;;;;;2023112;29;20036;-93
2021/09/06 04:26:19;;;;;;;8.15;5.93;;;14.70;85.10;;;;;;2018995;29;19916;-94
2021/09/06 04:27:40;;;;;;;7.85;5.72;;;14.60;85.10;;;;;;2011172;29;20052;-93
2021/09/06 04:28:59;;;;;;;8.68;6.15;;;14.70;85.20;;;;;;2012232;29;20036;-94
2021/09/06 04:30:18;;;;;;;8.68;6.35;;;14.60;85.10;;;;;;2023429;29;20033;-93
2021/09/06 04:31:37;;;;;;;8.40;5.65;;;14.60;85.20;;;;;;2021940;29;20037;-93
2021/09/06 04:32:56;;;;;;;8.48;5.85;;;14.60;85.30;;;;;;2011251;29;20042;-92
2021/09/06 04:34:16;;;;;;;9.45;5.78;;;14.60;85.40;;;;;;2013381;29;20041;-93
2021/09/06 04:35:35;;;;;;;9.25;6.28;;;14.50;85.40;;;;;;2011628;29;20509;-94
2021/09/06 04:36:55;;;;;;;8.98;6.18;;;14.50;85.40;;;;;;2005699;29;20570;-92
2021/09/06 04:38:14;;;;;;;9.38;5.90;;;14.50;86.00;;;;;;2021981;29;20029;-92
2021/09/06 04:39:33;;;;;;;8.90;6.10;;;14.50;85.50;;;;;;2014217;29;20042;-93
2021/09/06 04:40:53;;;;;;;9.13;6.07;;;14.50;85.50;;;;;;2020478;29;20049;-94
2021/09/06 04:42:12;;;;;;;9.55;6.22;;;14.50;85.50;;;;;;2026499;29;20041;-93
2021/09/06 04:43:31;;;;;;;8.35;6.40;;;14.50;85.50;;;;;;2020663;29;20056;-94
2021/09/06 04:44:50;;;;;;;8.65;5.95;;;14.50;85.50;;;;;;2014837;29;20124;-94
2021/09/06 04:46:10;;;;;;;8.88;6.13;;;14.50;85.60;;;;;;2015764;29;20520;-95
2021/09/06 04:47:29;;;;;;;8.80;6.32;;;14.50;85.70;;;;;;2007425;29;20037;-93
2021/09/06 04:48:49;;;;;;;9.60;6.53;;;14.50;85.70;;;;;;2013862;29;20041;-94
2021/09/06 04:50:08;;;;;;;9.80;6.45;;;14.50;85.80;;;;;;2023706;29;20032;-93
2021/09/06 04:51:28;;;;;;;9.32;6.38;;;14.50;85.80;;;;;;2028973;29;20029;-94
2021/09/06 04:52:48;;;;;;;9.18;6.22;;;14.50;85.80;;;;;;2017747;29;20052;-95
2021/09/06 04:54:07;;;;;;;10.07;6.32;;;14.50;85.80;;;;;;2019214;29;20441;-94
2021/09/06 04:55:26;;;;;;;8.90;6.20;;;14.50;85.80;;;;;;2024706;29;20032;-92
2021/09/06 04:56:46;;;;;;;11.85;6.28;;;14.50;85.80;;;;;;2022560;29;20076;-94
2021/09/06 04:58:05;;;;;;;8.80;6.28;;;14.50;85.80;;;;;;2017208;29;20033;-93
2021/09/06 04:59:24;;;;;;;9.93;6.63;;;14.50;85.80;;;;;;2015670;29;20048;-93
2021/09/06 05:00:44;;;;;;;9.02;6.25;;;14.50;85.80;;;;;;2014160;29;20049;-93
2021/09/06 05:02:03;;;;;;;9.73;6.70;;;14.50;85.80;;;;;;2015894;29;20123;-93
2021/09/06 05:03:23;;;;;;;8.68;6.15;;;14.50;85.80;;;;;;2009128;29;20512;-93
2021/09/06 05:04:42;;;;;;;9.15;6.30;;;14.50;85.80;;;;;;2020033;29;20041;-93
2021/09/06 05:06:01;;;;;;;9.52;6.43;;;14.50;85.70;;;;;;2016842;29;20528;-93
2021/09/06 05:07:20;;;;;;;9.77;7.28;;;14.50;85.70;;;;;;2002476;29;20046;-93
2021/09/06 05:08:40;;;;;;;9.38;6.65;;;14.50;85.70;;;;;;2014836;29;20033;-93
2021/09/06 05:09:59;;;;;;;9.40;6.60;;;14.50;85.60;;;;;;2005880;29;20037;-92
2021/09/06 05:11:18;;;;;;;10.00;6.53;;;14.50;85.70;;;;;;2008598;29;20038;-93
2021/09/06 05:12:38;;;;;;;8.98;6.65;;;14.50;85.60;;;;;;2018470;29;20037;-92
2021/09/06 05:13:57;;;;;;;10.13;6.57;;;14.50;85.60;;;;;;2015522;29;20029;-92
2021/09/06 05:15:16;;;;;;;10.30;6.18;;;14.50;85.70;;;;;;2026339;29;20085;-92
2021/09/06 05:16:36;;;;;;;9.45;6.68;;;14.50;85.70;;;;;;2018294;29;20079;-92
2021/09/06 05:17:55;;;;;;;9.63;6.70;;;14.50;85.70;;;;;;2023034;29;20037;-92
2021/09/06 05:19:14;;;;;;;10.52;6.70;;;14.50;85.70;;;;;;2020544;29;20049;-92
2021/09/06 05:20:34;;;;;;;9.23;6.63;;;14.50;85.80;;;;;;2009713;29;20501;-92
2021/09/06 05:21:53;;;;;;;10.73;6.90;;;14.50;85.80;;;;;;2024869;29;20037;-92
2021/09/06 05:23:12;;;;;;;9.25;6.47;;;14.50;85.90;;;;;;2018340;29;20033;-92
2021/09/06 05:24:31;;;;;;;10.65;6.97;;;14.50;85.90;;;;;;2004222;29;20042;-92
2021/09/06 05:25:53;;;;;;;10.15;6.82;;;14.50;85.90;;;;;;2007393;29;20034;-92
2021/09/06 05:27:12;;;;;;;9.75;6.63;;;14.50;85.90;;;;;;2021111;29;20045;-93
2021/09/06 05:28:32;;;;;;;9.38;6.32;;;14.50;85.90;;;;;;2017055;29;20037;-93
2021/09/06 05:29:51;;;;;;;9.68;6.63;;;14.60;86.00;;;;;;2010162;29;20046;-92
2021/09/06 05:31:12;;;;;;;10.32;6.75;;;14.60;85.90;;;;;;2007975;29;20049;-92
2021/09/06 05:32:31;;;;;;;8.48;6.35;;;14.60;85.90;;;;;;2016890;29;20069;-92
2021/09/06 05:33:50;;;;;;;8.80;6.55;;;14.60;85.90;;;;;;2011320;29;20038;-93
2021/09/06 05:35:10;;;;;;;9.18;6.78;;;14.60;85.90;;;;;;2012736;29;20041;-93
2021/09/06 05:36:30;;;;;;;9.77;6.53;;;14.60;85.90;;;;;;2008179;29;20041;-93
2021/09/06 05:37:49;;;;;;;10.77;6.97;;;14.60;85.90;;;;;;2016512;29;20475;-93
2021/09/06 05:39:08;;;;;;;9.93;6.80;;;14.60;85.90;;;;;;2011444;29;20216;-92
2021/09/06 05:40:28;;;;;;;9.75;6.72;;;14.70;85.90;;;;;;2017947;29;20033;-92
2021/09/06 05:41:47;;;;;;;12.57;6.32;;;14.70;85.90;;;;;;2020399;29;20507;-93
2021/09/06 05:43:07;;;;;;;11.20;7.22;;;14.70;85.80;;;;;;2017888;29;20440;-93
2021/09/06 05:44:26;;;;;;;9.98;7.15;;;14.70;85.80;;;;;;2013112;29;20041;-94
2021/09/06 05:45:45;;;;;;;10.15;6.57;;;14.70;85.80;;;;;;2019456;29;20400;-92
2021/09/06 05:47:06;;;;;;;10.45;7.22;;;14.80;85.70;;;;;;2012112;29;20843;-93
2021/09/06 05:48:27;;;;;;;10.20;7.22;;;14.80;85.70;;;;;;2019066;29;20056;-91
2021/09/06 05:49:48;;;;;;;10.15;7.25;;;14.80;85.60;;;;;;2020101;29;20037;-91
2021/09/06 05:51:07;;;;;;;;;;;14.80;85.60;;;;;;2020934;29;20045;-91
2021/09/06 05:52:27;;;;;;;10.25;6.78;;;14.90;85.40;;;;;;2020916;29;20370;-92
2021/09/06 05:53:46;;;;;;;9.98;6.82;;;14.90;85.30;;;;;;2023346;29;20037;-92
2021/09/06 05:55:06;;;;;;;11.65;7.22;;;14.90;85.30;;;;;;2019498;29;20069;-92
2021/09/06 05:56:25;;;;;;;10.43;7.32;;;14.90;85.30;;;;;;2008798;29;20034;-92
2021/09/06 05:57:44;;;;;;;10.80;7.18;;;15.00;85.30;;;;;;2022780;29;20108;-91
2021/09/06 05:59:03;;;;;;;11.43;7.53;;;15.00;85.30;;;;;;2022334;29;20057;-91
2021/09/06 06:00:22;;;;;;;10.60;7.60;;;15.00;85.20;;;;;;2020561;29;20029;-92
2021/09/06 06:01:42;;;;;;;11.38;7.90;;;15.00;85.20;;;;;;2009072;29;20045;-92
2021/09/06 06:03:03;;;;;;;12.20;8.00;;;15.10;85.20;;;;;;2009080;29;20038;-92
2021/09/06 06:04:23;;;;;;;11.32;7.82;;;15.10;85.10;;;;;;2010289;29;20034;-92
2021/09/06 06:05:42;;;;;;;12.05;8.32;;;15.10;85.10;;;;;;2005382;29;20033;-92
2021/09/06 06:07:02;;;;;;;11.57;7.78;;;15.10;85.00;;;;;;2021378;29;20085;-91
2021/09/06 06:08:21;;;;;;;12.90;8.13;;;15.20;85.10;;;;;;2016727;29;20034;-90
2021/09/06 06:09:40;;;;;;;12.80;8.30;;;15.20;85.00;;;;;;2009962;29;20033;-92
2021/09/06 06:11:00;;;;;;;12.60;8.32;;;15.20;85.00;;;;;;2015218;29;20041;-92
2021/09/06 06:12:21;;;;;;;11.40;8.18;;;15.20;85.00;;;;;;2010413;29;20030;-92
2021/09/06 06:13:40;;;;;;;12.40;7.60;;;15.30;85.00;;;;;;2023734;29;20054;-91
2021/09/06 06:15:00;;;;;;;12.65;8.10;;;15.30;85.00;;;;;;2029133;29;20033;-92
2021/09/06 06:16:20;;;;;;;11.32;8.07;;;15.40;85.00;;;;;;2008440;29;20049;-92
2021/09/06 06:17:42;;;;;;;11.77;8.18;;;15.40;84.90;;;;;;2009941;29;20037;-91
2021/09/06 06:19:02;;;;;;;11.32;7.82;;;15.40;84.90;;;;;;2014636;29;20037;-92
2021/09/06 06:20:21;;;;;;;12.77;8.07;;;15.40;84.80;;;;;;2008166;29;20034;-92
2021/09/06 06:21:40;;;;;;;11.20;7.43;;;15.50;84.80;;;;;;2007825;29;20075;-92
2021/09/06 06:23:00;;;;;;;10.60;7.55;;;15.50;84.80;;;;;;2016752;29;20112;-91
2021/09/06 06:24:19;;;;;;;11.75;8.15;;;15.50;84.70;;;;;;2017039;29;20560;-92
2021/09/06 06:25:39;;;;;;;10.52;7.47;;;15.60;84.70;;;;;;2003822;29;20042;-91
2021/09/06 06:26:58;;;;;;;11.50;8.43;;;15.60;84.60;;;;;;2016949;29;20033;-92
2021/09/06 06:28:17;;;;;;;10.98;7.72;;;15.70;84.60;;;;;;2014148;29;20038;-90
2021/09/06 06:29:36;;;;;;;11.43;8.02;;;15.70;84.50;;;;;;2017844;29;20033;-92
2021/09/06 06:30:55;;;;;;;11.77;8.43;;;15.80;84.50;;;;;;2024246;29;20487;-92
2021/09/06 06:32:15;;;;;;;13.38;8.38;;;15.80;84.40;;;;;;2026781;29;20100;-91
2021/09/06 06:33:34;;;;;;;11.60;8.05;;;15.80;84.30;;;;;;2022429;29;20029;-92
2021/09/06 06:34:54;;;;;;;13.30;8.45;;;15.90;84.40;;;;;;2025235;29;20036;-93
2021/09/06 06:36:13;;;;;;;11.55;8.07;;;15.90;84.40;;;;;;2028665;29;20214;-92
2021/09/06 06:37:33;;;;;;;11.93;7.93;;;15.90;84.30;;;;;;2015913;29;20046;-92
2021/09/06 06:38:53;;;;;;;12.00;7.75;;;16.00;84.30;;;;;;2023048;29;20037;-92
2021/09/06 06:40:13;;;;;;;10.98;7.47;;;16.00;84.30;;;;;;2015601;29;20131;-92
2021/09/06 06:41:33;;;;;;;11.75;7.93;;;16.00;84.30;;;;;;2015368;29;20037;-91
2021/09/06 06:42:52;;;;;;;12.23;8.00;;;16.10;84.20;;;;;;2012439;29;20069;-91
2021/09/06 06:44:13;;;;;;;12.27;7.93;;;16.10;84.20;;;;;;2011231;29;20066;-92
2021/09/06 06:45:32;;;;;;;10.93;7.47;;;16.20;84.20;;;;;;2016015;29;20056;-92
2021/09/06 06:46:52;;;;;;;12.32;7.75;;;16.20;84.10;;;;;;2000043;29;20042;-92
2021/09/06 06:48:12;;;;;;;11.23;7.35;;;16.20;84.10;;;;;;2011146;29;20139;-91
2021/09/06 06:49:32;;;;;;;11.52;7.93;;;16.20;84.10;;;;;;2016856;29;20045;-91
2021/09/06 06:50:51;;;;;;;13.38;7.95;;;16.20;84.00;;;;;;2011926;29;20037;-91
2021/09/06 06:52:10;;;;;;;11.07;8.10;;;16.30;84.00;;;;;;2011545;29;20045;-91